createdAt,value
2023-01-27T00:00:25.177Z,63.47
2023-01-27T00:05:28.218Z,63.53
2023-01-27T00:10:31.274Z,63.51
2023-01-27T00:15:35.313Z,63.52
2023-01-27T00:20:56.761Z,63.38
2023-01-27T00:26:00.802Z,63.29
2023-01-27T00:31:04.908Z,63.16
2023-01-27T00:36:08.802Z,63.62
2023-01-27T00:41:20.793Z,63.98
2023-01-27T00:46:25.619Z,63.42
2023-01-27T00:51:28.752Z,62.62
2023-01-27T00:56:31.808Z,62.58
2023-01-27T01:01:35.640Z,62.88
2023-01-27T01:06:38.753Z,63.39
2023-01-27T01:11:41.748Z,63.42
2023-01-27T01:16:44.750Z,63.44
2023-01-27T01:21:47.801Z,62.92
2023-01-27T01:26:50.787Z,62.90
2023-01-27T01:31:54.341Z,62.99
2023-01-27T01:36:57.362Z,62.81
2023-01-27T01:42:00.596Z,62.94
2023-01-27T01:47:04.072Z,62.86
2023-01-27T01:52:11.865Z,63.13
2023-01-27T01:57:34.210Z,63.36
2023-01-27T02:02:40.217Z,62.55
2023-01-27T02:08:06.309Z,63.14
2023-01-27T02:13:10.228Z,63.47
2023-01-27T02:18:15.178Z,63.18
2023-01-27T02:23:36.628Z,63.89
2023-01-27T02:28:39.806Z,63.92
2023-01-27T02:33:44.299Z,63.75
2023-01-27T02:38:57.677Z,63.50
2023-01-27T02:44:01.160Z,63.74
2023-01-27T02:49:04.544Z,63.83
2023-01-27T02:54:07.585Z,63.83
2023-01-27T02:59:11.310Z,64.02
2023-01-27T03:04:17.465Z,63.14
2023-01-27T03:09:20.516Z,63.51
2023-01-27T03:14:41.945Z,63.53
2023-01-27T03:19:46.243Z,63.56
2023-01-27T03:24:49.467Z,63.24
2023-01-27T03:29:56.565Z,63.18
2023-01-27T03:35:01.777Z,62.85
2023-01-27T03:40:29.601Z,62.15
2023-01-27T03:45:51.218Z,63.17
2023-01-27T03:51:00.875Z,62.99
2023-01-27T03:56:06.713Z,62.32
2023-01-27T04:01:16.817Z,62.69
2023-01-27T04:06:41.536Z,62.55
2023-01-27T04:11:56.756Z,62.88
2023-01-27T04:17:11.143Z,62.86
2023-01-27T04:22:16.139Z,62.63
2023-01-27T04:27:20.619Z,62.69
2023-01-27T04:32:23.699Z,63.14
2023-01-27T04:37:26.733Z,63.34
2023-01-27T04:42:29.825Z,62.50
2023-01-27T04:47:32.853Z,62.48
2023-01-27T04:52:35.830Z,62.49
2023-01-27T04:57:38.875Z,63.09
2023-01-27T05:02:41.969Z,62.44
2023-01-27T05:07:45.042Z,62.59
2023-01-27T05:12:48.062Z,61.58
2023-01-27T05:17:51.381Z,61.22
2023-01-27T05:23:15.752Z,61.65
2023-01-27T05:28:18.831Z,60.46
2023-01-27T05:33:21.858Z,60.73
2023-01-27T05:38:24.858Z,60.32
2023-01-27T05:43:29.906Z,59.78
2023-01-27T05:48:35.223Z,59.79
2023-01-27T05:53:38.449Z,59.63
2023-01-27T05:58:41.538Z,58.79
2023-01-27T06:03:45.285Z,57.41
2023-01-27T06:08:48.652Z,57.17
2023-01-27T06:13:53.272Z,56.71
2023-01-27T06:18:56.344Z,57.76
2023-01-27T06:23:59.487Z,57.51
2023-01-27T06:29:02.933Z,57.63
2023-01-27T06:34:06.088Z,56.93
2023-01-27T06:39:10.121Z,56.83
2023-01-27T06:44:13.102Z,56.28
2023-01-27T06:49:16.605Z,56.37
2023-01-27T06:54:19.772Z,56.40
2023-01-27T06:59:22.852Z,56.27
2023-01-27T07:04:25.839Z,55.99
2023-01-27T07:09:29.856Z,57.36
2023-01-27T07:19:49.546Z,57.58
2023-01-27T07:24:52.682Z,57.30
2023-01-27T07:29:55.822Z,57.01
2023-01-27T07:35:01.180Z,56.31
2023-01-27T07:40:04.619Z,56.17
2023-01-27T07:45:08.509Z,55.60
2023-01-27T07:50:12.938Z,55.81
2023-01-27T07:55:16.271Z,55.11
2023-01-27T08:00:22.731Z,55.29
2023-01-27T08:05:26.411Z,55.05
2023-01-27T08:10:30.717Z,54.00
2023-01-27T08:15:33.750Z,54.05
2023-01-27T08:20:36.900Z,54.75
2023-01-27T08:25:39.986Z,53.54
2023-01-27T08:30:43.076Z,53.64
2023-01-27T08:35:46.731Z,53.26
2023-01-27T08:40:49.823Z,53.89
2023-01-27T08:45:53.455Z,53.82
2023-01-27T08:50:57.529Z,53.28
2023-01-27T08:56:05.804Z,53.56
2023-01-27T09:01:09.673Z,54.05
2023-01-27T09:06:14.043Z,53.28
2023-01-27T09:11:18.121Z,53.06
2023-01-27T09:16:21.344Z,53.09
2023-01-27T09:21:25.411Z,52.83
2023-01-27T09:26:28.422Z,52.52
2023-01-27T09:31:32.109Z,51.79
2023-01-27T09:36:53.196Z,51.71
2023-01-27T09:41:56.272Z,52.01
2023-01-27T09:47:27.922Z,52.18
2023-01-27T09:53:03.278Z,51.48
2023-01-27T09:58:50.620Z,50.90
2023-01-27T10:04:42.131Z,50.62
2023-01-27T10:10:07.421Z,50.70
2023-01-27T10:15:39.932Z,49.68
2023-01-27T10:21:26.302Z,49.74
2023-01-27T10:26:58.350Z,48.73
2023-01-27T10:32:09.762Z,49.35
2023-01-27T10:37:24.600Z,48.96
2023-01-27T10:43:04.841Z,49.15
2023-01-27T10:48:13.747Z,49.21
2023-01-27T10:53:50.103Z,48.24
2023-01-27T10:58:59.302Z,48.05
2023-01-27T11:04:12.689Z,47.86
2023-01-27T11:09:29.911Z,48.16
2023-01-27T11:14:44.305Z,47.55
2023-01-27T11:20:14.082Z,48.20
2023-01-27T11:25:34.732Z,48.22
2023-01-27T11:30:50.381Z,48.16
2023-01-27T11:35:54.489Z,47.30
2023-01-27T11:40:57.628Z,47.44
2023-01-27T11:46:07.163Z,47.40
2023-01-27T11:51:23.208Z,47.25
2023-01-27T11:56:27.689Z,47.95
2023-01-27T12:01:45.024Z,47.25
2023-01-27T12:10:21.737Z,47.99
2023-01-27T12:12:37.699Z,48.48
2023-01-27T12:17:43.678Z,47.81
2023-01-27T12:22:50.101Z,48.57
2023-01-27T12:28:05.001Z,48.21
2023-01-27T12:33:13.769Z,48.21
2023-01-27T12:38:24.477Z,48.84
2023-01-27T12:43:27.731Z,49.49
2023-01-27T12:48:34.031Z,49.68
2023-01-27T12:53:37.534Z,49.23
2023-01-27T12:58:55.668Z,50.54
2023-01-27T13:04:03.730Z,51.06
2023-01-27T13:09:20.647Z,51.09
2023-01-27T13:14:30.431Z,52.15
2023-01-27T13:19:42.171Z,51.97
2023-01-27T13:24:50.066Z,52.35
2023-01-27T13:30:06.206Z,52.38
2023-01-27T13:35:45.763Z,53.23
2023-01-27T13:40:49.022Z,53.17
2023-01-27T13:46:00.776Z,53.31
2023-01-27T13:51:18.575Z,53.46
2023-01-27T13:57:06.235Z,54.49
2023-01-27T14:02:34.940Z,53.90
2023-01-27T14:08:15.804Z,54.45
2023-01-27T14:13:40.351Z,54.12
2023-01-27T14:18:55.953Z,54.46
2023-01-27T14:24:11.198Z,54.96
2023-01-27T14:29:27.558Z,55.19
2023-01-27T14:34:58.051Z,54.90
2023-01-27T14:40:21.242Z,55.80
2023-01-27T14:45:36.338Z,55.78
2023-01-27T14:51:15.037Z,55.04
2023-01-27T14:56:43.567Z,55.99
2023-01-27T15:02:01.792Z,56.09
2023-01-27T15:07:16.665Z,56.44
2023-01-27T15:12:31.642Z,56.31
2023-01-27T15:17:53.463Z,57.12
2023-01-27T15:23:12.425Z,57.47
2023-01-27T15:28:19.581Z,57.38
2023-01-27T15:33:54.978Z,57.53
2023-01-27T15:39:09.995Z,57.66
2023-01-27T15:44:30.045Z,57.90
2023-01-27T15:50:02.871Z,58.26
2023-01-27T15:55:08.370Z,58.08
2023-01-27T16:00:34.788Z,58.13
2023-01-27T16:05:46.039Z,58.09
2023-01-27T16:10:49.185Z,58.00
2023-01-27T16:16:31.351Z,58.52
2023-01-27T16:21:47.960Z,58.90
2023-01-27T16:27:13.072Z,58.53
2023-01-27T16:38:07.386Z,58.21
2023-01-27T16:43:22.932Z,57.82
2023-01-27T16:48:42.966Z,57.94
2023-01-27T16:53:49.513Z,58.49
2023-01-27T16:58:59.207Z,57.96
2023-01-27T17:04:17.940Z,58.33
2023-01-27T17:09:28.123Z,58.51
2023-01-27T17:14:34.483Z,58.76
2023-01-27T17:19:37.988Z,58.84
2023-01-27T17:24:53.211Z,58.99
2023-01-27T17:30:03.291Z,59.21
2023-01-27T17:35:22.587Z,59.79
2023-01-27T17:40:25.691Z,59.98
2023-01-27T17:45:34.675Z,59.76
2023-01-27T17:50:39.793Z,59.95
2023-01-27T17:55:42.887Z,60.03
2023-01-27T18:00:47.420Z,59.90
2023-01-27T18:05:54.813Z,59.74
2023-01-27T18:11:11.395Z,59.95
2023-01-27T18:16:20.103Z,60.02
2023-01-27T18:21:25.672Z,60.33
2023-01-27T18:26:37.439Z,60.58
2023-01-27T18:31:50.032Z,60.36
2023-01-27T18:37:02.734Z,60.67
2023-01-27T18:42:16.329Z,61.14
2023-01-27T18:47:19.351Z,61.21
2023-01-27T18:52:22.921Z,61.45
2023-01-27T18:57:26.051Z,61.05
2023-01-27T19:02:29.073Z,61.15
2023-01-27T19:07:33.825Z,60.69
2023-01-27T19:12:36.967Z,60.75
2023-01-27T19:17:39.967Z,60.61
2023-01-27T19:22:43.094Z,60.69
2023-01-27T19:27:52.921Z,60.53
2023-01-27T19:32:57.394Z,60.29
2023-01-27T19:38:04.968Z,60.18
2023-01-27T19:43:09.938Z,59.92
2023-01-27T19:48:20.134Z,60.55
2023-01-27T19:53:23.202Z,60.87
2023-01-27T19:58:28.409Z,60.51
2023-01-27T20:03:31.555Z,60.24
2023-01-27T20:08:34.526Z,60.87
2023-01-27T20:13:37.672Z,60.64
2023-01-27T20:18:40.905Z,60.82
2023-01-27T20:23:43.967Z,60.07
2023-01-27T20:34:09.246Z,60.09
2023-01-27T20:39:13.148Z,60.45
2023-01-27T20:44:16.230Z,60.20
2023-01-27T20:49:19.292Z,60.70
2023-01-27T20:54:22.451Z,59.74
2023-01-27T20:59:25.711Z,59.91
2023-01-27T21:04:28.749Z,60.12
2023-01-27T21:09:31.824Z,60.43
2023-01-27T21:14:34.912Z,60.73
2023-01-27T21:19:38.448Z,60.99
2023-01-27T21:24:42.868Z,60.86
2023-01-27T21:29:46.001Z,61.32
2023-01-27T21:34:49.124Z,62.32
2023-01-27T21:39:54.036Z,61.51
2023-01-27T21:45:13.737Z,61.26
2023-01-27T21:50:17.711Z,61.60
2023-01-27T21:55:25.993Z,61.81
2023-01-27T22:00:29.471Z,61.89
2023-01-27T22:05:35.954Z,62.13
2023-01-27T22:10:39.205Z,62.59
2023-01-27T22:15:42.172Z,62.22
2023-01-27T22:20:45.224Z,63.06
2023-01-27T22:25:51.842Z,62.12
2023-01-27T22:30:55.264Z,61.69
2023-01-27T22:36:04.010Z,63.05
2023-01-27T22:41:07.034Z,63.09
2023-01-27T22:46:10.193Z,63.35
2023-01-27T22:51:13.331Z,63.78
2023-01-27T22:56:16.372Z,64.57
2023-01-27T23:01:19.668Z,63.70
2023-01-27T23:06:22.762Z,63.71
2023-01-27T23:11:25.809Z,64.21
2023-01-27T23:21:45.526Z,63.68
2023-01-27T23:26:48.728Z,64.20
2023-01-27T23:31:52.037Z,63.57
2023-01-27T23:36:55.137Z,63.41
2023-01-27T23:41:58.208Z,62.69
2023-01-27T23:47:01.399Z,62.97
2023-01-27T23:52:08.073Z,63.12
2023-01-27T23:57:11.151Z,63.22
